Rosenort Airport

CKJ2 · 曼尼托巴, 加拿大

使用的METAR站距离机场28 NM。
罗盘
风向 的 风向 的 风向 到 风向 350° Rosenort Airport 17/35
风: 6 kt, 2 beaufort

6 kt

1 kt
改变
0 ft 2.000 4.000 6.000 8.000 10.000
Cloud Cloud Cloud Cloud
SCT 5.500
Cloud Cloud Cloud Cloud Cloud Cloud
BKN 6.300
Cloud Cloud Cloud Cloud Cloud Cloud
BKN 7.000
METAR CYWG 201700Z 35006KT 330V040 13SM -SHRA SCT055 BKN063 BKN070 13/09 A2988 RMK SC4SC2AC1 CVCTV CLD EMBD SLP124

METAR Rosenort Airport - CKJ2

Rosenort Airport是,加拿大中的小机场。 该机场位于纬度49,45370和经度-97,42250。 该机场有一条跑道: 17/35. 该机场的伪ICAO代码为CKJ2。 机场在Winnipeg FIR中。

该航空气象观测是针对Winnipeg / James Armstrong Richardson International Airport在2024年5月20日 12:00, 当地时间进行的。

机场观察

风向为350°,速度为6 kt。 风向在330°和040°之间变化。

可见度为13 mi。

有疏云,零星散落的云朵在5.500 ft的高度, 碎云在6.300 ft的高度 和 碎云在7.000 ft的高度。 破损或更高的上限为6.300 ft。

当前天气为光 阵雨 雨。 温度和风寒是13 °C。 露点为9 °C,相对湿度为77%。 海平面上的气压为29,88 inHg (QNH)。

白天

今天,太阳从05:38升起,在21:14降落。 这适用于Rosenort Airport,世界夏令时可能有所不同。 当地时间与世界标准时间之间的时差为-5 小时。 夏令时目前正在进行中。

公司介绍

我们没有关于这个机场的公司信息。

体会

到Vliegles.nl去找飞行课程,跳伞和其他飞行体验。 浏览页面,了解Rosenort Airport附近所有可用的活动。 你也可以使用搜索功能来寻找你所在地附近的特定飞行课程、跳伞或其他飞行体验。

跑道

Id 标题 侧风 逆风 侧风 %
17/35 180°-360° 1 kt 6 kt 17 %

逆风成分最大的方向会被突出显示,并用于横风计算。 这并不一定意味着这个方向在使用。

乌云

5.500 ft SCT 疏云,零星散落的云朵
6.300 ft BKN 碎云
7.000 ft BKN 碎云

温度 & 天气

天气 光 阵雨 雨
温度 13 °C
露点 9 °C
相对湿度 77%
Kp-index 1 (0-9)

评论

SLP124海平面压力为29,90 inHg (29,90 inHg)
SC4SC2AC1 CVCTV CLD EMBD

白天

日出
05:35
中午
13:25
日落
21:15 (8:11)

小工具

你想在你的网站上有一个关于Rosenort Airport的当前航空天气(METAR)的小部件吗?

显示HTML代码
报告变更